EST,Max TemperatureF,Mean TemperatureF,Min TemperatureF,Max Dew PointF,MeanDew PointF,Min DewpointF,Max Humidity, Mean Humidity, Min Humidity, Max Sea Level PressureIn, Mean Sea Level PressureIn, Min Sea Level PressureIn, Max VisibilityMiles, Mean VisibilityMiles, Min VisibilityMiles, Max Wind SpeedMPH, Mean Wind SpeedMPH, Max Gust SpeedMPH,PrecipitationIn, CloudCover, Events, WindDirDegrees
2012-11-1,49,40,30,33,29,22,84,66,36,29.88,29.83,29.80,10,9,4,20,10,24,0.00,5,,283
2012-11-2,47,41,35,32,31,29,84,69,52,30.11,29.99,29.85,10,8,3,12,4,20,0.00,5,Snow,339
2012-11-3,39,34,30,34,31,29,94,83,72,30.19,30.15,30.11,10,8,2,10,3,,0.01,4,Rain-Snow,45
2012-11-4,41,34,28,31,29,27,92,77,59,30.21,30.17,30.16,10,9,5,10,5,,0.00,5,Snow,12
2012-11-5,92,34,26,29,27,24,95,77,54,30.20,30.16,30.12,10,8,4,10,4,,0.00,0,Snow,69
2012-11-6,92,36,26,35,29,24,92,71,49,30.11,30.01,29.92,10,8,3,8,5,,0.00,3,Snow,136
2012-11-7,92,40,32,36,32,29,93,74,50,30.14,30.01,29.91,10,7,3,9,4,18,0.00,3,,44
2012-11-8,92,36,26,35,31,25,95,82,58,30.24,30.18,30.14,10,6,2,9,2,,0.00,3,,265
2012-11-9,59,44,29,39,35,28,95,71,46,30.19,30.13,30.05,10,6,2,17,6,21,0.00,2,,177
2012-11-10,92,56,45,47,43,38,73,56,46,30.13,30.08,30.04,10,9,3,18,11,24,0.00,2,,188
2012-11-11,92,58,49,46,42,37,70,55,42,30.15,30.06,29.94,10,9,7,26,15,34,0.00,1,,185
2012-11-12,92,46,31,52,34,25,95,81,54,30.35,30.14,29.95,10,8,0,23,16,30,0.57,6,Rain-Snow,263
2012-11-13,92,32,27,27,24,21,90,74,55,30.52,30.45,30.35,10,9,4,13,7,,0.00,1,Snow,287
2012-11-14,92,32,25,28,25,21,92,77,58,30.55,30.48,30.40,10,9,5,10,3,,0.00,0,,97
2012-11-15,92,34,25,30,27,24,95,83,62,30.40,30.37,30.34,10,6,2,6,2,,0.00,0,Snow,68
2012-11-16,92,36,25,32,28,24,96,77,44,30.50,30.44,30.38,10,5,2,6,0,,0.00,0,Snow,73
2012-11-17,92,40,27,34,30,26,94,72,43,30.58,30.51,30.47,10,4,0,9,2,,0.00,0,,112
2012-11-18,92,44,32,33,30,28,85,62,35,30.48,30.42,30.37,10,5,1,9,5,,0.00,0,Snow,100
2012-11-19,92,46,33,39,32,25,78,62,36,30.37,30.28,30.17,10,7,1,6,3,,0.00,2,,168
2012-11-20,92,47,42,42,39,34,91,73,63,30.16,30.12,30.08,10,8,5,7,2,,0.00,8,,182
2012-11-21,92,44,31,46,39,31,99,86,61,30.26,30.20,30.16,7,4,0,5,1,,0.00,2,Fog,276
2012-11-22,92,48,36,44,39,36,98,74,48,30.20,30.08,29.92,10,6,2,21,8,26,0.00,1,,191
2012-11-23,92,40,27,50,29,18,94,76,65,30.18,30.03,29.89,10,9,4,32,20,43,0.10,7,Rain-Snow,278
2012-11-24,92,26,23,20,20,18,80,72,67,30.23,30.17,30.08,10,10,7,16,12,21,0.00,7,Snow,271
2012-11-25,92,34,26,30,25,20,84,70,51,30.08,29.95,29.88,10,10,5,17,9,24,0.00,3,Snow,230
2012-11-26,92,35,27,30,27,24,89,76,51,30.30,30.17,30.03,10,9,2,9,3,,0.00,4,Snow,334
2012-11-27,92,30,24,28,25,20,99,81,54,30.40,30.32,30.28,10,8,0,8,3,,0.00,4,Fog-Snow,285
2012-11-28,92,32,25,26,23,21,87,73,53,30.39,30.34,30.28,10,9,5,12,7,18,0.00,2,,244
2012-11-29,92,36,26,30,26,21,81,69,49,30.36,30.27,30.18,10,9,7,15,7,20,0.00,0,,185
2012-11-30,92,44,32,36,31,27,81,65,42,30.18,30.14,30.09,10,10,7,13,7,17,0.00,3,,183